sensor_id;sensor_type;location;lat;lon;timestamp;P1;durP1;ratioP1;P2;durP2;ratioP2
1887;SDS011;944;51.574;6.980;2022-10-16T00:01:40;14.13;;;5.93;;
1887;SDS011;944;51.574;6.980;2022-10-16T00:04:08;10.10;;;4.90;;
1887;SDS011;944;51.574;6.980;2022-10-16T00:06:36;8.80;;;5.43;;
1887;SDS011;944;51.574;6.980;2022-10-16T00:09:04;18.23;;;5.77;;
1887;SDS011;944;51.574;6.980;2022-10-16T00:11:33;10.13;;;5.30;;
1887;SDS011;944;51.574;6.980;2022-10-16T00:14:04;14.83;;;6.73;;
1887;SDS011;944;51.574;6.980;2022-10-16T00:16:33;7.63;;;5.30;;
1887;SDS011;944;51.574;6.980;2022-10-16T00:19:00;13.60;;;6.10;;
1887;SDS011;944;51.574;6.980;2022-10-16T00:21:28;16.83;;;6.63;;
1887;SDS011;944;51.574;6.980;2022-10-16T00:23:57;9.83;;;5.90;;
1887;SDS011;944;51.574;6.980;2022-10-16T00:26:26;13.00;;;7.17;;
1887;SDS011;944;51.574;6.980;2022-10-16T00:28:57;8.40;;;5.83;;
1887;SDS011;944;51.574;6.980;2022-10-16T00:31:24;8.90;;;5.53;;
1887;SDS011;944;51.574;6.980;2022-10-16T00:33:52;11.50;;;6.27;;
1887;SDS011;944;51.574;6.980;2022-10-16T00:36:20;8.17;;;5.47;;
1887;SDS011;944;51.574;6.980;2022-10-16T00:38:49;17.20;;;6.70;;
1887;SDS011;944;51.574;6.980;2022-10-16T00:41:20;13.87;;;7.07;;
1887;SDS011;944;51.574;6.980;2022-10-16T00:43:49;13.17;;;7.80;;
1887;SDS011;944;51.574;6.980;2022-10-16T00:46:19;15.40;;;6.43;;
1887;SDS011;944;51.574;6.980;2022-10-16T00:48:50;8.47;;;5.93;;
1887;SDS011;944;51.574;6.980;2022-10-16T00:51:21;10.47;;;5.80;;
1887;SDS011;944;51.574;6.980;2022-10-16T00:53:52;9.43;;;5.67;;
1887;SDS011;944;51.574;6.980;2022-10-16T00:56:22;10.50;;;5.40;;
1887;SDS011;944;51.574;6.980;2022-10-16T00:58:49;15.20;;;5.47;;
1887;SDS011;944;51.574;6.980;2022-10-16T01:01:16;6.57;;;4.80;;
1887;SDS011;944;51.574;6.980;2022-10-16T01:03:44;18.07;;;5.27;;
1887;SDS011;944;51.574;6.980;2022-10-16T01:06:23;7.77;;;5.20;;
1887;SDS011;944;51.574;6.980;2022-10-16T01:09:03;7.90;;;4.63;;
1887;SDS011;944;51.574;6.980;2022-10-16T01:11:41;6.50;;;4.80;;
1887;SDS011;944;51.574;6.980;2022-10-16T01:14:19;12.43;;;5.70;;
1887;SDS011;944;51.574;6.980;2022-10-16T01:16:53;11.27;;;5.67;;
1887;SDS011;944;51.574;6.980;2022-10-16T01:19:30;11.00;;;5.77;;
1887;SDS011;944;51.574;6.980;2022-10-16T01:22:15;12.57;;;4.80;;
1887;SDS011;944;51.574;6.980;2022-10-16T01:24:43;10.40;;;5.40;;
1887;SDS011;944;51.574;6.980;2022-10-16T01:27:16;9.90;;;5.30;;
1887;SDS011;944;51.574;6.980;2022-10-16T01:29:48;12.63;;;5.50;;
1887;SDS011;944;51.574;6.980;2022-10-16T01:32:22;10.30;;;5.50;;
1887;SDS011;944;51.574;6.980;2022-10-16T01:35:00;7.50;;;5.00;;
1887;SDS011;944;51.574;6.980;2022-10-16T01:37:38;4.93;;;4.43;;
1887;SDS011;944;51.574;6.980;2022-10-16T01:40:11;17.33;;;5.73;;
1887;SDS011;944;51.574;6.980;2022-10-16T01:42:42;10.73;;;5.43;;
1887;SDS011;944;51.574;6.980;2022-10-16T01:45:14;9.80;;;5.30;;
1887;SDS011;944;51.574;6.980;2022-10-16T01:47:45;17.30;;;5.20;;
1887;SDS011;944;51.574;6.980;2022-10-16T01:50:14;7.60;;;4.33;;
1887;SDS011;944;51.574;6.980;2022-10-16T01:52:45;6.90;;;4.83;;
1887;SDS011;944;51.574;6.980;2022-10-16T01:55:17;6.10;;;4.70;;
1887;SDS011;944;51.574;6.980;2022-10-16T01:57:50;10.60;;;5.03;;
1887;SDS011;944;51.574;6.980;2022-10-16T02:00:19;7.50;;;4.70;;
1887;SDS011;944;51.574;6.980;2022-10-16T02:02:49;7.93;;;4.63;;
1887;SDS011;944;51.574;6.980;2022-10-16T02:05:20;4.90;;;3.80;;
1887;SDS011;944;51.574;6.980;2022-10-16T02:07:55;6.23;;;3.90;;
1887;SDS011;944;51.574;6.980;2022-10-16T02:10:22;5.30;;;3.60;;
1887;SDS011;944;51.574;6.980;2022-10-16T02:12:55;7.87;;;3.53;;
1887;SDS011;944;51.574;6.980;2022-10-16T02:15:29;7.47;;;3.80;;
1887;SDS011;944;51.574;6.980;2022-10-16T02:17:56;10.53;;;3.80;;
1887;SDS011;944;51.574;6.980;2022-10-16T02:20:25;13.17;;;3.60;;
1887;SDS011;944;51.574;6.980;2022-10-16T02:22:56;6.77;;;4.03;;
1887;SDS011;944;51.574;6.980;2022-10-16T02:25:25;5.03;;;3.50;;
1887;SDS011;944;51.574;6.980;2022-10-16T02:28:00;6.77;;;2.97;;
1887;SDS011;944;51.574;6.980;2022-10-16T02:30:33;8.00;;;3.50;;
1887;SDS011;944;51.574;6.980;2022-10-16T02:33:05;4.83;;;3.43;;
1887;SDS011;944;51.574;6.980;2022-10-16T02:35:35;8.50;;;3.53;;
1887;SDS011;944;51.574;6.980;2022-10-16T02:41:44;3.83;;;3.27;;
1887;SDS011;944;51.574;6.980;2022-10-16T02:44:12;11.17;;;3.00;;
1887;SDS011;944;51.574;6.980;2022-10-16T02:46:39;5.63;;;3.30;;
1887;SDS011;944;51.574;6.980;2022-10-16T02:49:06;6.17;;;2.40;;
1887;SDS011;944;51.574;6.980;2022-10-16T02:51:33;7.60;;;2.70;;
1887;SDS011;944;51.574;6.980;2022-10-16T02:54:01;4.23;;;2.60;;
1887;SDS011;944;51.574;6.980;2022-10-16T02:56:28;7.20;;;2.70;;
1887;SDS011;944;51.574;6.980;2022-10-16T02:58:56;5.10;;;2.50;;
1887;SDS011;944;51.574;6.980;2022-10-16T03:01:24;5.13;;;3.00;;
1887;SDS011;944;51.574;6.980;2022-10-16T03:03:51;5.90;;;2.93;;
1887;SDS011;944;51.574;6.980;2022-10-16T03:06:20;4.90;;;3.00;;
1887;SDS011;944;51.574;6.980;2022-10-16T03:08:51;2.80;;;2.60;;
1887;SDS011;944;51.574;6.980;2022-10-16T03:11:19;4.40;;;2.60;;
1887;SDS011;944;51.574;6.980;2022-10-16T03:17:28;10.47;;;2.40;;
1887;SDS011;944;51.574;6.980;2022-10-16T03:19:57;7.03;;;2.23;;
1887;SDS011;944;51.574;6.980;2022-10-16T03:22:24;3.17;;;2.70;;
1887;SDS011;944;51.574;6.980;2022-10-16T03:24:51;5.17;;;2.07;;
1887;SDS011;944;51.574;6.980;2022-10-16T03:27:18;6.13;;;2.40;;
1887;SDS011;944;51.574;6.980;2022-10-16T03:29:45;7.70;;;2.30;;
1887;SDS011;944;51.574;6.980;2022-10-16T03:32:13;4.80;;;2.33;;
1887;SDS011;944;51.574;6.980;2022-10-16T03:34:42;13.27;;;2.97;;
1887;SDS011;944;51.574;6.980;2022-10-16T03:37:09;5.63;;;2.10;;
1887;SDS011;944;51.574;6.980;2022-10-16T03:39:35;3.13;;;2.63;;
1887;SDS011;944;51.574;6.980;2022-10-16T03:42:02;5.37;;;1.90;;
1887;SDS011;944;51.574;6.980;2022-10-16T03:44:30;2.30;;;2.10;;
1887;SDS011;944;51.574;6.980;2022-10-16T03:46:57;5.77;;;2.00;;
1887;SDS011;944;51.574;6.980;2022-10-16T03:49:24;2.87;;;1.90;;
1887;SDS011;944;51.574;6.980;2022-10-16T03:51:52;3.13;;;2.10;;
1887;SDS011;944;51.574;6.980;2022-10-16T03:54:19;2.63;;;1.70;;
1887;SDS011;944;51.574;6.980;2022-10-16T03:56:47;2.37;;;1.80;;
1887;SDS011;944;51.574;6.980;2022-10-16T03:59:14;3.43;;;2.20;;
1887;SDS011;944;51.574;6.980;2022-10-16T04:01:41;1.60;;;1.50;;
1887;SDS011;944;51.574;6.980;2022-10-16T04:04:08;3.70;;;1.90;;
1887;SDS011;944;51.574;6.980;2022-10-16T04:06:35;2.10;;;1.90;;
1887;SDS011;944;51.574;6.980;2022-10-16T04:09:03;3.67;;;2.20;;
1887;SDS011;944;51.574;6.980;2022-10-16T04:11:30;4.23;;;2.13;;
1887;SDS011;944;51.574;6.980;2022-10-16T04:13:57;2.10;;;1.80;;
1887;SDS011;944;51.574;6.980;2022-10-16T04:16:24;4.30;;;2.00;;
1887;SDS011;944;51.574;6.980;2022-10-16T04:18:51;2.00;;;1.70;;
1887;SDS011;944;51.574;6.980;2022-10-16T04:21:21;1.93;;;1.80;;
1887;SDS011;944;51.574;6.980;2022-10-16T04:23:48;1.87;;;1.70;;
1887;SDS011;944;51.574;6.980;2022-10-16T04:26:16;3.13;;;2.07;;
1887;SDS011;944;51.574;6.980;2022-10-16T04:28:43;2.20;;;1.80;;
1887;SDS011;944;51.574;6.980;2022-10-16T04:31:10;1.90;;;1.80;;
1887;SDS011;944;51.574;6.980;2022-10-16T04:33:37;3.27;;;1.70;;
1887;SDS011;944;51.574;6.980;2022-10-16T04:36:04;5.70;;;1.93;;
1887;SDS011;944;51.574;6.980;2022-10-16T04:38:31;4.50;;;1.90;;
1887;SDS011;944;51.574;6.980;2022-10-16T04:40:58;1.60;;;1.50;;
1887;SDS011;944;51.574;6.980;2022-10-16T04:43:27;4.33;;;2.13;;
1887;SDS011;944;51.574;6.980;2022-10-16T04:45:53;5.00;;;1.90;;
1887;SDS011;944;51.574;6.980;2022-10-16T04:48:21;1.70;;;1.60;;
1887;SDS011;944;51.574;6.980;2022-10-16T04:50:48;3.73;;;1.90;;
1887;SDS011;944;51.574;6.980;2022-10-16T04:53:15;3.20;;;2.30;;
1887;SDS011;944;51.574;6.980;2022-10-16T04:55:42;3.47;;;3.17;;
1887;SDS011;944;51.574;6.980;2022-10-16T04:58:11;3.30;;;2.10;;
1887;SDS011;944;51.574;6.980;2022-10-16T05:04:03;3.13;;;2.20;;
1887;SDS011;944;51.574;6.980;2022-10-16T05:07:03;4.23;;;2.63;;
1887;SDS011;944;51.574;6.980;2022-10-16T05:09:31;3.90;;;2.10;;
1887;SDS011;944;51.574;6.980;2022-10-16T05:11:58;4.17;;;2.10;;
1887;SDS011;944;51.574;6.980;2022-10-16T05:14:25;2.90;;;2.00;;
1887;SDS011;944;51.574;6.980;2022-10-16T05:16:52;2.77;;;2.40;;
1887;SDS011;944;51.574;6.980;2022-10-16T05:19:21;4.10;;;2.53;;
1887;SDS011;944;51.574;6.980;2022-10-16T05:21:49;2.80;;;1.93;;
1887;SDS011;944;51.574;6.980;2022-10-16T05:24:16;2.73;;;2.10;;
1887;SDS011;944;51.574;6.980;2022-10-16T05:26:45;2.40;;;2.20;;
1887;SDS011;944;51.574;6.980;2022-10-16T05:29:12;9.30;;;2.37;;
1887;SDS011;944;51.574;6.980;2022-10-16T05:31:40;2.73;;;2.00;;
1887;SDS011;944;51.574;6.980;2022-10-16T05:34:07;7.33;;;2.10;;
1887;SDS011;944;51.574;6.980;2022-10-16T05:36:36;3.93;;;1.93;;
1887;SDS011;944;51.574;6.980;2022-10-16T05:39:03;2.83;;;1.90;;
1887;SDS011;944;51.574;6.980;2022-10-16T05:41:33;2.13;;;2.00;;
1887;SDS011;944;51.574;6.980;2022-10-16T05:43:59;3.93;;;2.00;;
1887;SDS011;944;51.574;6.980;2022-10-16T05:46:30;2.30;;;1.87;;
1887;SDS011;944;51.574;6.980;2022-10-16T05:48:56;3.53;;;2.10;;
1887;SDS011;944;51.574;6.980;2022-10-16T05:51:26;5.17;;;2.20;;
1887;SDS011;944;51.574;6.980;2022-10-16T05:53:58;2.20;;;2.00;;
1887;SDS011;944;51.574;6.980;2022-10-16T05:56:28;7.13;;;2.30;;
1887;SDS011;944;51.574;6.980;2022-10-16T05:58:58;2.30;;;2.10;;
1887;SDS011;944;51.574;6.980;2022-10-16T06:01:33;4.70;;;2.20;;
1887;SDS011;944;51.574;6.980;2022-10-16T06:04:03;2.77;;;2.50;;
1887;SDS011;944;51.574;6.980;2022-10-16T06:06:39;3.07;;;1.90;;
1887;SDS011;944;51.574;6.980;2022-10-16T06:09:13;8.70;;;2.50;;
1887;SDS011;944;51.574;6.980;2022-10-16T06:11:43;2.60;;;2.40;;
1887;SDS011;944;51.574;6.980;2022-10-16T06:14:16;7.47;;;2.40;;
1887;SDS011;944;51.574;6.980;2022-10-16T06:16:46;4.00;;;2.17;;
1887;SDS011;944;51.574;6.980;2022-10-16T06:19:16;4.30;;;2.70;;
1887;SDS011;944;51.574;6.980;2022-10-16T06:21:43;2.73;;;2.50;;
1887;SDS011;944;51.574;6.980;2022-10-16T06:24:15;2.40;;;1.97;;
1887;SDS011;944;51.574;6.980;2022-10-16T06:26:42;2.10;;;2.00;;
1887;SDS011;944;51.574;6.980;2022-10-16T06:29:12;8.80;;;2.27;;
1887;SDS011;944;51.574;6.980;2022-10-16T06:31:39;3.33;;;2.20;;
1887;SDS011;944;51.574;6.980;2022-10-16T06:34:07;2.43;;;2.20;;
1887;SDS011;944;51.574;6.980;2022-10-16T06:36:36;6.43;;;1.90;;
1887;SDS011;944;51.574;6.980;2022-10-16T06:39:04;1.97;;;1.87;;
1887;SDS011;944;51.574;6.980;2022-10-16T06:41:33;5.07;;;2.30;;
1887;SDS011;944;51.574;6.980;2022-10-16T06:44:01;4.63;;;2.30;;
1887;SDS011;944;51.574;6.980;2022-10-16T06:46:31;2.73;;;1.97;;
1887;SDS011;944;51.574;6.980;2022-10-16T06:48:58;4.40;;;2.27;;
1887;SDS011;944;51.574;6.980;2022-10-16T06:51:25;2.27;;;2.00;;
1887;SDS011;944;51.574;6.980;2022-10-16T06:53:52;2.07;;;1.90;;
1887;SDS011;944;51.574;6.980;2022-10-16T06:56:22;2.50;;;2.30;;
1887;SDS011;944;51.574;6.980;2022-10-16T06:58:52;3.13;;;2.40;;
1887;SDS011;944;51.574;6.980;2022-10-16T07:01:20;3.73;;;2.20;;
1887;SDS011;944;51.574;6.980;2022-10-16T07:03:48;4.70;;;2.17;;
1887;SDS011;944;51.574;6.980;2022-10-16T07:06:16;2.70;;;2.17;;
1887;SDS011;944;51.574;6.980;2022-10-16T07:08:46;5.30;;;2.10;;
1887;SDS011;944;51.574;6.980;2022-10-16T07:11:14;4.53;;;2.30;;
1887;SDS011;944;51.574;6.980;2022-10-16T07:13:44;4.97;;;2.60;;
1887;SDS011;944;51.574;6.980;2022-10-16T07:16:15;6.60;;;2.57;;
1887;SDS011;944;51.574;6.980;2022-10-16T07:18:44;7.53;;;2.50;;
1887;SDS011;944;51.574;6.980;2022-10-16T07:21:15;2.47;;;1.90;;
1887;SDS011;944;51.574;6.980;2022-10-16T07:23:45;4.40;;;2.20;;
1887;SDS011;944;51.574;6.980;2022-10-16T07:26:20;3.33;;;2.20;;
1887;SDS011;944;51.574;6.980;2022-10-16T07:28:58;3.27;;;2.23;;
1887;SDS011;944;51.574;6.980;2022-10-16T07:31:27;5.63;;;2.23;;
1887;SDS011;944;51.574;6.980;2022-10-16T07:33:55;4.70;;;2.70;;
1887;SDS011;944;51.574;6.980;2022-10-16T07:36:25;3.40;;;2.43;;
1887;SDS011;944;51.574;6.980;2022-10-16T07:38:52;2.13;;;2.03;;
1887;SDS011;944;51.574;6.980;2022-10-16T07:41:19;4.13;;;2.60;;
1887;SDS011;944;51.574;6.980;2022-10-16T07:43:46;3.00;;;2.20;;
1887;SDS011;944;51.574;6.980;2022-10-16T07:46:15;6.13;;;2.10;;
1887;SDS011;944;51.574;6.980;2022-10-16T07:48:44;4.80;;;2.23;;
1887;SDS011;944;51.574;6.980;2022-10-16T07:51:16;9.33;;;2.37;;
1887;SDS011;944;51.574;6.980;2022-10-16T07:53:44;3.10;;;2.33;;
1887;SDS011;944;51.574;6.980;2022-10-16T07:56:16;2.37;;;2.17;;
1887;SDS011;944;51.574;6.980;2022-10-16T07:58:47;3.30;;;2.40;;
1887;SDS011;944;51.574;6.980;2022-10-16T08:01:19;3.93;;;1.80;;
1887;SDS011;944;51.574;6.980;2022-10-16T08:03:49;5.50;;;1.87;;
1887;SDS011;944;51.574;6.980;2022-10-16T08:06:17;2.07;;;1.83;;
1887;SDS011;944;51.574;6.980;2022-10-16T08:08:46;3.17;;;2.23;;
1887;SDS011;944;51.574;6.980;2022-10-16T08:11:13;4.80;;;2.40;;
1887;SDS011;944;51.574;6.980;2022-10-16T08:13:40;3.20;;;2.20;;
1887;SDS011;944;51.574;6.980;2022-10-16T08:16:07;2.73;;;1.83;;
1887;SDS011;944;51.574;6.980;2022-10-16T08:18:35;3.80;;;1.80;;
1887;SDS011;944;51.574;6.980;2022-10-16T08:21:03;1.87;;;1.77;;
1887;SDS011;944;51.574;6.980;2022-10-16T08:23:31;2.47;;;2.10;;
1887;SDS011;944;51.574;6.980;2022-10-16T08:26:02;6.07;;;1.57;;
1887;SDS011;944;51.574;6.980;2022-10-16T08:28:30;9.83;;;1.90;;
1887;SDS011;944;51.574;6.980;2022-10-16T08:31:04;6.83;;;2.17;;
1887;SDS011;944;51.574;6.980;2022-10-16T08:33:32;5.43;;;2.20;;
1887;SDS011;944;51.574;6.980;2022-10-16T08:36:01;3.50;;;1.80;;
1887;SDS011;944;51.574;6.980;2022-10-16T08:38:30;3.60;;;2.00;;
1887;SDS011;944;51.574;6.980;2022-10-16T08:41:01;9.37;;;2.20;;
1887;SDS011;944;51.574;6.980;2022-10-16T08:43:50;2.80;;;1.87;;
1887;SDS011;944;51.574;6.980;2022-10-16T08:46:36;4.33;;;2.20;;
1887;SDS011;944;51.574;6.980;2022-10-16T08:49:12;4.50;;;1.80;;
1887;SDS011;944;51.574;6.980;2022-10-16T08:51:41;6.13;;;2.10;;
1887;SDS011;944;51.574;6.980;2022-10-16T08:54:13;6.00;;;2.13;;
1887;SDS011;944;51.574;6.980;2022-10-16T08:56:53;5.87;;;2.07;;
1887;SDS011;944;51.574;6.980;2022-10-16T08:59:20;7.63;;;2.37;;
1887;SDS011;944;51.574;6.980;2022-10-16T09:01:49;5.10;;;2.33;;
1887;SDS011;944;51.574;6.980;2022-10-16T09:07:23;3.60;;;1.83;;
1887;SDS011;944;51.574;6.980;2022-10-16T09:10:04;4.13;;;2.00;;
1887;SDS011;944;51.574;6.980;2022-10-16T09:12:51;7.57;;;2.23;;
1887;SDS011;944;51.574;6.980;2022-10-16T09:16:10;8.93;;;2.53;;
1887;SDS011;944;51.574;6.980;2022-10-16T09:19:05;4.43;;;2.73;;
1887;SDS011;944;51.574;6.980;2022-10-16T09:21:42;8.10;;;3.10;;
1887;SDS011;944;51.574;6.980;2022-10-16T09:24:23;4.93;;;2.70;;
1887;SDS011;944;51.574;6.980;2022-10-16T09:27:01;6.23;;;2.47;;
1887;SDS011;944;51.574;6.980;2022-10-16T09:29:28;4.00;;;2.03;;
1887;SDS011;944;51.574;6.980;2022-10-16T09:31:55;5.43;;;2.30;;
1887;SDS011;944;51.574;6.980;2022-10-16T09:34:40;4.30;;;2.43;;
1887;SDS011;944;51.574;6.980;2022-10-16T09:37:12;13.70;;;2.30;;
1887;SDS011;944;51.574;6.980;2022-10-16T09:39:48;3.60;;;2.30;;
1887;SDS011;944;51.574;6.980;2022-10-16T09:42:24;4.90;;;2.30;;
1887;SDS011;944;51.574;6.980;2022-10-16T09:45:19;6.63;;;2.77;;
1887;SDS011;944;51.574;6.980;2022-10-16T09:51:34;4.43;;;2.23;;
1887;SDS011;944;51.574;6.980;2022-10-16T09:54:12;12.90;;;2.80;;
1887;SDS011;944;51.574;6.980;2022-10-16T09:56:43;8.80;;;2.73;;
1887;SDS011;944;51.574;6.980;2022-10-16T09:59:17;6.40;;;1.97;;
1887;SDS011;944;51.574;6.980;2022-10-16T10:01:47;2.73;;;2.17;;
1887;SDS011;944;51.574;6.980;2022-10-16T10:04:20;6.10;;;2.97;;
1887;SDS011;944;51.574;6.980;2022-10-16T10:06:53;3.47;;;3.10;;
1887;SDS011;944;51.574;6.980;2022-10-16T10:09:28;4.90;;;2.67;;
1887;SDS011;944;51.574;6.980;2022-10-16T10:12:05;2.40;;;2.10;;
1887;SDS011;944;51.574;6.980;2022-10-16T10:14:46;5.23;;;2.33;;
1887;SDS011;944;51.574;6.980;2022-10-16T10:17:16;3.20;;;1.80;;
1887;SDS011;944;51.574;6.980;2022-10-16T10:19:54;3.50;;;2.00;;
1887;SDS011;944;51.574;6.980;2022-10-16T10:22:43;9.63;;;3.73;;
1887;SDS011;944;51.574;6.980;2022-10-16T10:31:29;4.33;;;2.17;;
1887;SDS011;944;51.574;6.980;2022-10-16T10:34:05;6.23;;;2.90;;
1887;SDS011;944;51.574;6.980;2022-10-16T10:36:55;4.43;;;2.37;;
1887;SDS011;944;51.574;6.980;2022-10-16T10:39:30;11.13;;;2.27;;
1887;SDS011;944;51.574;6.980;2022-10-16T10:42:15;3.33;;;2.33;;
1887;SDS011;944;51.574;6.980;2022-10-16T10:44:57;5.87;;;2.90;;
1887;SDS011;944;51.574;6.980;2022-10-16T10:47:49;5.87;;;3.63;;
1887;SDS011;944;51.574;6.980;2022-10-16T10:50:30;5.93;;;2.57;;
1887;SDS011;944;51.574;6.980;2022-10-16T10:53:09;2.87;;;2.23;;
1887;SDS011;944;51.574;6.980;2022-10-16T10:55:48;2.70;;;2.00;;
1887;SDS011;944;51.574;6.980;2022-10-16T10:58:35;2.67;;;2.43;;
1887;SDS011;944;51.574;6.980;2022-10-16T11:01:32;5.03;;;2.00;;
1887;SDS011;944;51.574;6.980;2022-10-16T11:04:37;7.23;;;2.30;;
1887;SDS011;944;51.574;6.980;2022-10-16T11:07:23;4.70;;;1.53;;
1887;SDS011;944;51.574;6.980;2022-10-16T11:10:02;3.43;;;1.40;;
1887;SDS011;944;51.574;6.980;2022-10-16T11:12:36;3.23;;;1.30;;
1887;SDS011;944;51.574;6.980;2022-10-16T11:15:18;3.43;;;1.73;;
1887;SDS011;944;51.574;6.980;2022-10-16T11:18:06;11.83;;;1.27;;
1887;SDS011;944;51.574;6.980;2022-10-16T11:20:49;3.53;;;1.50;;
1887;SDS011;944;51.574;6.980;2022-10-16T11:23:31;1.83;;;1.17;;
1887;SDS011;944;51.574;6.980;2022-10-16T11:26:28;5.73;;;2.30;;
1887;SDS011;944;51.574;6.980;2022-10-16T11:29:25;4.87;;;1.80;;
1887;SDS011;944;51.574;6.980;2022-10-16T11:38:42;3.17;;;1.70;;
1887;SDS011;944;51.574;6.980;2022-10-16T11:49:14;2.70;;;1.60;;
1887;SDS011;944;51.574;6.980;2022-10-16T11:52:36;2.43;;;1.43;;
1887;SDS011;944;51.574;6.980;2022-10-16T11:55:18;5.93;;;1.87;;
1887;SDS011;944;51.574;6.980;2022-10-16T12:01:38;2.93;;;1.57;;
1887;SDS011;944;51.574;6.980;2022-10-16T12:04:19;3.00;;;1.60;;
1887;SDS011;944;51.574;6.980;2022-10-16T12:06:54;5.27;;;1.90;;
1887;SDS011;944;51.574;6.980;2022-10-16T12:09:38;4.33;;;2.10;;
1887;SDS011;944;51.574;6.980;2022-10-16T12:12:46;4.43;;;2.00;;
1887;SDS011;944;51.574;6.980;2022-10-16T12:15:41;5.83;;;2.17;;
1887;SDS011;944;51.574;6.980;2022-10-16T12:18:32;4.20;;;2.00;;
1887;SDS011;944;51.574;6.980;2022-10-16T12:21:06;7.13;;;2.30;;
1887;SDS011;944;51.574;6.980;2022-10-16T12:23:46;7.43;;;2.20;;
1887;SDS011;944;51.574;6.980;2022-10-16T12:26:25;3.40;;;1.70;;
1887;SDS011;944;51.574;6.980;2022-10-16T12:29:19;4.63;;;2.00;;
1887;SDS011;944;51.574;6.980;2022-10-16T12:32:21;3.77;;;1.50;;
1887;SDS011;944;51.574;6.980;2022-10-16T12:35:34;2.30;;;1.50;;
1887;SDS011;944;51.574;6.980;2022-10-16T12:38:17;5.50;;;2.10;;
1887;SDS011;944;51.574;6.980;2022-10-16T12:41:06;4.60;;;2.33;;
1887;SDS011;944;51.574;6.980;2022-10-16T12:43:38;3.77;;;1.87;;
1887;SDS011;944;51.574;6.980;2022-10-16T12:46:38;3.73;;;1.80;;
1887;SDS011;944;51.574;6.980;2022-10-16T12:49:29;6.20;;;2.40;;
1887;SDS011;944;51.574;6.980;2022-10-16T12:52:04;3.97;;;2.03;;
1887;SDS011;944;51.574;6.980;2022-10-16T12:55:12;7.50;;;2.33;;
1887;SDS011;944;51.574;6.980;2022-10-16T13:15:22;2.23;;;1.27;;
1887;SDS011;944;51.574;6.980;2022-10-16T15:50:33;1.50;;;1.33;;
1887;SDS011;944;51.574;6.980;2022-10-16T15:58:04;3.27;;;1.67;;
1887;SDS011;944;51.574;6.980;2022-10-16T16:24:40;4.60;;;3.27;;
1887;SDS011;944;51.574;6.980;2022-10-16T16:35:12;8.83;;;3.70;;
1887;SDS011;944;51.574;6.980;2022-10-16T19:40:52;9.80;;;4.10;;
1887;SDS011;944;51.574;6.980;2022-10-16T19:47:04;7.57;;;4.40;;
1887;SDS011;944;51.574;6.980;2022-10-16T19:49:54;8.60;;;5.57;;
1887;SDS011;944;51.574;6.980;2022-10-16T19:52:35;7.93;;;5.17;;
1887;SDS011;944;51.574;6.980;2022-10-16T20:02:49;20.13;;;6.40;;
1887;SDS011;944;51.574;6.980;2022-10-16T20:05:39;8.47;;;5.87;;
1887;SDS011;944;51.574;6.980;2022-10-16T20:19:00;19.27;;;7.10;;
1887;SDS011;944;51.574;6.980;2022-10-16T20:21:33;9.83;;;6.30;;
1887;SDS011;944;51.574;6.980;2022-10-16T20:24:06;14.30;;;6.70;;
1887;SDS011;944;51.574;6.980;2022-10-16T20:26:41;9.00;;;6.00;;
1887;SDS011;944;51.574;6.980;2022-10-16T20:29:18;9.43;;;7.00;;
1887;SDS011;944;51.574;6.980;2022-10-16T20:38:31;21.60;;;7.13;;
1887;SDS011;944;51.574;6.980;2022-10-16T20:44:44;10.10;;;6.20;;
1887;SDS011;944;51.574;6.980;2022-10-16T21:09:08;13.17;;;7.80;;
1887;SDS011;944;51.574;6.980;2022-10-16T21:15:39;16.57;;;7.80;;
1887;SDS011;944;51.574;6.980;2022-10-16T21:28:09;15.23;;;7.40;;
1887;SDS011;944;51.574;6.980;2022-10-16T21:34:57;14.13;;;7.40;;
1887;SDS011;944;51.574;6.980;2022-10-16T21:40:55;11.23;;;7.30;;
1887;SDS011;944;51.574;6.980;2022-10-16T21:47:03;19.87;;;7.50;;
1887;SDS011;944;51.574;6.980;2022-10-16T21:56:47;13.80;;;8.70;;
1887;SDS011;944;51.574;6.980;2022-10-16T21:59:40;13.63;;;8.60;;
1887;SDS011;944;51.574;6.980;2022-10-16T22:02:10;15.00;;;8.87;;
1887;SDS011;944;51.574;6.980;2022-10-16T22:04:43;12.60;;;8.73;;
1887;SDS011;944;51.574;6.980;2022-10-16T22:11:18;19.90;;;9.07;;
1887;SDS011;944;51.574;6.980;2022-10-16T22:14:04;17.73;;;9.57;;
1887;SDS011;944;51.574;6.980;2022-10-16T22:16:48;18.77;;;9.77;;
1887;SDS011;944;51.574;6.980;2022-10-16T22:19:22;15.83;;;9.60;;
1887;SDS011;944;51.574;6.980;2022-10-16T22:25:50;13.73;;;10.20;;
1887;SDS011;944;51.574;6.980;2022-10-16T22:32:27;16.43;;;10.17;;
1887;SDS011;944;51.574;6.980;2022-10-16T22:34:57;19.00;;;10.40;;
1887;SDS011;944;51.574;6.980;2022-10-16T22:37:24;15.57;;;10.73;;
1887;SDS011;944;51.574;6.980;2022-10-16T22:39:51;19.10;;;9.63;;
1887;SDS011;944;51.574;6.980;2022-10-16T22:42:28;16.53;;;10.33;;
1887;SDS011;944;51.574;6.980;2022-10-16T22:45:06;13.60;;;9.60;;
1887;SDS011;944;51.574;6.980;2022-10-16T22:47:41;14.97;;;9.80;;
1887;SDS011;944;51.574;6.980;2022-10-16T22:50:09;16.27;;;10.43;;
1887;SDS011;944;51.574;6.980;2022-10-16T22:52:41;14.47;;;9.67;;
1887;SDS011;944;51.574;6.980;2022-10-16T22:55:10;18.87;;;10.93;;
1887;SDS011;944;51.574;6.980;2022-10-16T22:57:37;19.30;;;10.63;;
1887;SDS011;944;51.574;6.980;2022-10-16T23:00:06;17.87;;;10.87;;
1887;SDS011;944;51.574;6.980;2022-10-16T23:02:41;13.60;;;9.43;;
1887;SDS011;944;51.574;6.980;2022-10-16T23:05:10;11.77;;;9.30;;
1887;SDS011;944;51.574;6.980;2022-10-16T23:07:38;18.40;;;11.03;;
1887;SDS011;944;51.574;6.980;2022-10-16T23:10:11;14.67;;;10.40;;
1887;SDS011;944;51.574;6.980;2022-10-16T23:12:45;15.73;;;11.00;;
1887;SDS011;944;51.574;6.980;2022-10-16T23:19:48;19.10;;;11.70;;
1887;SDS011;944;51.574;6.980;2022-10-16T23:22:50;21.43;;;12.30;;
1887;SDS011;944;51.574;6.980;2022-10-16T23:25:33;15.53;;;11.97;;
1887;SDS011;944;51.574;6.980;2022-10-16T23:32:37;18.20;;;11.80;;
1887;SDS011;944;51.574;6.980;2022-10-16T23:46:07;22.83;;;12.00;;
1887;SDS011;944;51.574;6.980;2022-10-16T23:48:53;20.03;;;13.37;;
1887;SDS011;944;51.574;6.980;2022-10-16T23:51:48;18.20;;;12.17;;
1887;SDS011;944;51.574;6.980;2022-10-16T23:54:16;23.10;;;13.40;;
1887;SDS011;944;51.574;6.980;2022-10-16T23:56:48;20.57;;;13.80;;
1887;SDS011;944;51.574;6.980;2022-10-16T23:59:33;21.83;;;12.50;;
